sensor_id;sensor_type;location;lat;lon;timestamp;P1;durP1;ratioP1;P2;durP2;ratioP2
5847;SDS011;8756;49.29324300;8.70599800;2022-09-03T00:00:29;14.37;;;2.30;;
5847;SDS011;8756;49.29324300;8.70599800;2022-09-03T00:03:03;10.03;;;2.03;;
5847;SDS011;8756;49.29324300;8.70599800;2022-09-03T00:05:48;10.57;;;2.10;;
5847;SDS011;8756;49.29324300;8.70599800;2022-09-03T00:08:22;9.90;;;2.20;;
5847;SDS011;8756;49.29324300;8.70599800;2022-09-03T00:11:00;11.13;;;2.17;;
5847;SDS011;8756;49.29324300;8.70599800;2022-09-03T00:13:36;11.30;;;2.27;;
5847;SDS011;8756;49.29324300;8.70599800;2022-09-03T00:16:08;11.60;;;2.13;;
5847;SDS011;8756;49.29324300;8.70599800;2022-09-03T00:18:42;9.70;;;1.80;;
5847;SDS011;8756;49.29324300;8.70599800;2022-09-03T00:21:15;10.30;;;2.03;;
5847;SDS011;8756;49.29324300;8.70599800;2022-09-03T00:23:44;14.93;;;2.37;;
5847;SDS011;8756;49.29324300;8.70599800;2022-09-03T00:28:44;10.27;;;1.83;;
5847;SDS011;8756;49.29324300;8.70599800;2022-09-03T00:31:21;10.43;;;2.00;;
5847;SDS011;8756;49.29324300;8.70599800;2022-09-03T00:33:54;15.40;;;2.20;;
5847;SDS011;8756;49.29324300;8.70599800;2022-09-03T00:36:33;10.20;;;2.00;;
5847;SDS011;8756;49.29324300;8.70599800;2022-09-03T00:39:08;12.73;;;2.40;;
5847;SDS011;8756;49.29324300;8.70599800;2022-09-03T00:41:39;11.23;;;2.27;;
5847;SDS011;8756;49.29324300;8.70599800;2022-09-03T00:52:30;9.33;;;1.80;;
5847;SDS011;8756;49.29324300;8.70599800;2022-09-03T00:57:57;9.60;;;2.17;;
5847;SDS011;8756;49.29324300;8.70599800;2022-09-03T01:00:35;9.60;;;1.90;;
5847;SDS011;8756;49.29324300;8.70599800;2022-09-03T01:09:11;10.47;;;2.10;;
5847;SDS011;8756;49.29324300;8.70599800;2022-09-03T01:11:51;9.60;;;2.30;;
5847;SDS011;8756;49.29324300;8.70599800;2022-09-03T01:31:22;11.83;;;1.93;;
5847;SDS011;8756;49.29324300;8.70599800;2022-09-03T01:34:15;9.50;;;1.93;;
5847;SDS011;8756;49.29324300;8.70599800;2022-09-03T01:36:58;10.67;;;2.20;;
5847;SDS011;8756;49.29324300;8.70599800;2022-09-03T01:39:32;10.33;;;1.90;;
5847;SDS011;8756;49.29324300;8.70599800;2022-09-03T01:50:47;11.43;;;2.07;;
5847;SDS011;8756;49.29324300;8.70599800;2022-09-03T01:53:38;10.30;;;2.17;;
5847;SDS011;8756;49.29324300;8.70599800;2022-09-03T01:59:21;9.30;;;2.10;;
5847;SDS011;8756;49.29324300;8.70599800;2022-09-03T02:02:22;9.10;;;1.50;;
5847;SDS011;8756;49.29324300;8.70599800;2022-09-03T02:04:57;9.70;;;1.87;;
5847;SDS011;8756;49.29324300;8.70599800;2022-09-03T02:07:32;9.90;;;2.00;;
5847;SDS011;8756;49.29324300;8.70599800;2022-09-03T02:10:00;9.90;;;2.27;;
5847;SDS011;8756;49.29324300;8.70599800;2022-09-03T02:12:30;9.37;;;1.80;;
5847;SDS011;8756;49.29324300;8.70599800;2022-09-03T02:15:03;10.50;;;2.30;;
5847;SDS011;8756;49.29324300;8.70599800;2022-09-03T02:17:36;10.90;;;1.80;;
5847;SDS011;8756;49.29324300;8.70599800;2022-09-03T02:20:03;9.70;;;2.10;;
5847;SDS011;8756;49.29324300;8.70599800;2022-09-03T02:22:31;10.57;;;1.93;;
5847;SDS011;8756;49.29324300;8.70599800;2022-09-03T02:24:58;16.13;;;2.70;;
5847;SDS011;8756;49.29324300;8.70599800;2022-09-03T02:27:24;9.60;;;1.80;;
5847;SDS011;8756;49.29324300;8.70599800;2022-09-03T02:29:51;11.70;;;2.10;;
5847;SDS011;8756;49.29324300;8.70599800;2022-09-03T02:32:17;9.83;;;2.13;;
5847;SDS011;8756;49.29324300;8.70599800;2022-09-03T02:34:43;10.33;;;2.20;;
5847;SDS011;8756;49.29324300;8.70599800;2022-09-03T02:37:16;10.43;;;1.97;;
5847;SDS011;8756;49.29324300;8.70599800;2022-09-03T02:39:42;11.40;;;2.07;;
5847;SDS011;8756;49.29324300;8.70599800;2022-09-03T02:42:09;11.17;;;1.77;;
5847;SDS011;8756;49.29324300;8.70599800;2022-09-03T02:44:37;11.73;;;2.30;;
5847;SDS011;8756;49.29324300;8.70599800;2022-09-03T02:47:19;9.50;;;2.00;;
5847;SDS011;8756;49.29324300;8.70599800;2022-09-03T02:49:48;9.90;;;1.80;;
5847;SDS011;8756;49.29324300;8.70599800;2022-09-03T02:52:14;10.50;;;2.30;;
5847;SDS011;8756;49.29324300;8.70599800;2022-09-03T02:54:40;9.97;;;1.97;;
5847;SDS011;8756;49.29324300;8.70599800;2022-09-03T02:57:10;10.60;;;2.40;;
5847;SDS011;8756;49.29324300;8.70599800;2022-09-03T02:59:38;11.53;;;2.33;;
5847;SDS011;8756;49.29324300;8.70599800;2022-09-03T03:02:05;11.80;;;2.67;;
5847;SDS011;8756;49.29324300;8.70599800;2022-09-03T03:04:32;9.47;;;2.00;;
5847;SDS011;8756;49.29324300;8.70599800;2022-09-03T03:06:57;11.27;;;2.20;;
5847;SDS011;8756;49.29324300;8.70599800;2022-09-03T03:09:23;10.20;;;2.17;;
5847;SDS011;8756;49.29324300;8.70599800;2022-09-03T03:11:49;10.87;;;2.73;;
5847;SDS011;8756;49.29324300;8.70599800;2022-09-03T03:14:15;10.50;;;2.17;;
5847;SDS011;8756;49.29324300;8.70599800;2022-09-03T03:16:42;11.80;;;2.43;;
5847;SDS011;8756;49.29324300;8.70599800;2022-09-03T03:19:08;17.70;;;2.70;;
5847;SDS011;8756;49.29324300;8.70599800;2022-09-03T03:21:34;10.20;;;2.60;;
5847;SDS011;8756;49.29324300;8.70599800;2022-09-03T03:24:00;11.07;;;2.33;;
5847;SDS011;8756;49.29324300;8.70599800;2022-09-03T03:26:26;10.00;;;1.97;;
5847;SDS011;8756;49.29324300;8.70599800;2022-09-03T03:28:55;10.20;;;2.17;;
5847;SDS011;8756;49.29324300;8.70599800;2022-09-03T03:31:22;9.70;;;2.13;;
5847;SDS011;8756;49.29324300;8.70599800;2022-09-03T03:33:55;12.83;;;1.70;;
5847;SDS011;8756;49.29324300;8.70599800;2022-09-03T03:36:25;10.53;;;2.30;;
5847;SDS011;8756;49.29324300;8.70599800;2022-09-03T03:38:53;10.50;;;2.17;;
5847;SDS011;8756;49.29324300;8.70599800;2022-09-03T03:41:20;11.70;;;2.43;;
5847;SDS011;8756;49.29324300;8.70599800;2022-09-03T03:43:54;10.40;;;2.40;;
5847;SDS011;8756;49.29324300;8.70599800;2022-09-03T03:46:22;9.87;;;2.30;;
5847;SDS011;8756;49.29324300;8.70599800;2022-09-03T03:48:50;9.67;;;1.93;;
5847;SDS011;8756;49.29324300;8.70599800;2022-09-03T03:51:17;10.30;;;2.57;;
5847;SDS011;8756;49.29324300;8.70599800;2022-09-03T03:53:43;9.70;;;2.10;;
5847;SDS011;8756;49.29324300;8.70599800;2022-09-03T03:56:11;9.90;;;2.67;;
5847;SDS011;8756;49.29324300;8.70599800;2022-09-03T03:58:38;11.27;;;2.40;;
5847;SDS011;8756;49.29324300;8.70599800;2022-09-03T04:03:38;11.10;;;2.50;;
5847;SDS011;8756;49.29324300;8.70599800;2022-09-03T04:06:04;9.83;;;2.33;;
5847;SDS011;8756;49.29324300;8.70599800;2022-09-03T04:08:35;9.40;;;2.10;;
5847;SDS011;8756;49.29324300;8.70599800;2022-09-03T04:11:03;9.53;;;1.73;;
5847;SDS011;8756;49.29324300;8.70599800;2022-09-03T04:13:31;10.07;;;2.33;;
5847;SDS011;8756;49.29324300;8.70599800;2022-09-03T04:16:02;10.67;;;2.87;;
5847;SDS011;8756;49.29324300;8.70599800;2022-09-03T04:18:33;10.03;;;2.27;;
5847;SDS011;8756;49.29324300;8.70599800;2022-09-03T04:21:00;11.10;;;2.57;;
5847;SDS011;8756;49.29324300;8.70599800;2022-09-03T04:23:28;10.43;;;2.17;;
5847;SDS011;8756;49.29324300;8.70599800;2022-09-03T04:25:55;9.20;;;1.93;;
5847;SDS011;8756;49.29324300;8.70599800;2022-09-03T04:28:21;11.63;;;2.70;;
5847;SDS011;8756;49.29324300;8.70599800;2022-09-03T04:30:46;9.67;;;2.37;;
5847;SDS011;8756;49.29324300;8.70599800;2022-09-03T04:33:12;10.27;;;2.20;;
5847;SDS011;8756;49.29324300;8.70599800;2022-09-03T04:35:38;9.80;;;2.20;;
5847;SDS011;8756;49.29324300;8.70599800;2022-09-03T04:38:05;12.67;;;2.50;;
5847;SDS011;8756;49.29324300;8.70599800;2022-09-03T04:40:31;10.00;;;2.30;;
5847;SDS011;8756;49.29324300;8.70599800;2022-09-03T04:42:57;9.97;;;2.50;;
5847;SDS011;8756;49.29324300;8.70599800;2022-09-03T04:45:24;11.70;;;2.80;;
5847;SDS011;8756;49.29324300;8.70599800;2022-09-03T04:48:02;10.57;;;2.67;;
5847;SDS011;8756;49.29324300;8.70599800;2022-09-03T04:50:29;10.07;;;2.77;;
5847;SDS011;8756;49.29324300;8.70599800;2022-09-03T04:53:00;14.53;;;2.90;;
5847;SDS011;8756;49.29324300;8.70599800;2022-09-03T04:55:32;11.60;;;2.30;;
5847;SDS011;8756;49.29324300;8.70599800;2022-09-03T04:58:01;11.00;;;2.57;;
5847;SDS011;8756;49.29324300;8.70599800;2022-09-03T05:00:28;10.80;;;2.97;;
5847;SDS011;8756;49.29324300;8.70599800;2022-09-03T05:02:54;11.70;;;2.40;;
5847;SDS011;8756;49.29324300;8.70599800;2022-09-03T05:05:20;11.70;;;2.57;;
5847;SDS011;8756;49.29324300;8.70599800;2022-09-03T05:07:46;10.57;;;2.73;;
5847;SDS011;8756;49.29324300;8.70599800;2022-09-03T05:10:12;12.97;;;2.50;;
5847;SDS011;8756;49.29324300;8.70599800;2022-09-03T05:12:44;10.73;;;2.97;;
5847;SDS011;8756;49.29324300;8.70599800;2022-09-03T05:15:11;10.73;;;2.50;;
5847;SDS011;8756;49.29324300;8.70599800;2022-09-03T05:17:38;10.73;;;2.97;;
5847;SDS011;8756;49.29324300;8.70599800;2022-09-03T05:20:04;10.40;;;2.90;;
5847;SDS011;8756;49.29324300;8.70599800;2022-09-03T05:22:33;10.33;;;2.67;;
5847;SDS011;8756;49.29324300;8.70599800;2022-09-03T05:24:59;10.60;;;3.00;;
5847;SDS011;8756;49.29324300;8.70599800;2022-09-03T05:27:25;10.30;;;3.10;;
5847;SDS011;8756;49.29324300;8.70599800;2022-09-03T05:29:50;10.20;;;2.47;;
5847;SDS011;8756;49.29324300;8.70599800;2022-09-03T05:32:16;11.77;;;3.00;;
5847;SDS011;8756;49.29324300;8.70599800;2022-09-03T05:34:42;12.00;;;2.50;;
5847;SDS011;8756;49.29324300;8.70599800;2022-09-03T05:37:08;12.33;;;3.30;;
5847;SDS011;8756;49.29324300;8.70599800;2022-09-03T05:39:35;10.10;;;2.83;;
5847;SDS011;8756;49.29324300;8.70599800;2022-09-03T05:42:01;10.40;;;3.23;;
5847;SDS011;8756;49.29324300;8.70599800;2022-09-03T05:44:27;11.53;;;3.27;;
5847;SDS011;8756;49.29324300;8.70599800;2022-09-03T05:46:53;11.00;;;3.03;;
5847;SDS011;8756;49.29324300;8.70599800;2022-09-03T05:49:19;10.40;;;3.27;;
5847;SDS011;8756;49.29324300;8.70599800;2022-09-03T05:51:45;12.50;;;3.40;;
5847;SDS011;8756;49.29324300;8.70599800;2022-09-03T05:54:11;12.97;;;3.00;;
5847;SDS011;8756;49.29324300;8.70599800;2022-09-03T05:56:38;10.33;;;2.90;;
5847;SDS011;8756;49.29324300;8.70599800;2022-09-03T05:59:05;10.50;;;3.03;;
5847;SDS011;8756;49.29324300;8.70599800;2022-09-03T06:01:37;11.40;;;3.00;;
5847;SDS011;8756;49.29324300;8.70599800;2022-09-03T06:04:09;10.10;;;2.53;;
5847;SDS011;8756;49.29324300;8.70599800;2022-09-03T06:06:37;10.50;;;2.90;;
5847;SDS011;8756;49.29324300;8.70599800;2022-09-03T06:09:05;10.67;;;3.17;;
5847;SDS011;8756;49.29324300;8.70599800;2022-09-03T06:11:35;12.33;;;3.20;;
5847;SDS011;8756;49.29324300;8.70599800;2022-09-03T06:14:03;10.87;;;3.10;;
5847;SDS011;8756;49.29324300;8.70599800;2022-09-03T06:16:31;10.60;;;3.30;;
5847;SDS011;8756;49.29324300;8.70599800;2022-09-03T06:18:59;10.70;;;3.10;;
5847;SDS011;8756;49.29324300;8.70599800;2022-09-03T06:21:25;11.73;;;3.40;;
5847;SDS011;8756;49.29324300;8.70599800;2022-09-03T06:23:53;10.33;;;3.57;;
5847;SDS011;8756;49.29324300;8.70599800;2022-09-03T06:26:21;12.77;;;3.33;;
5847;SDS011;8756;49.29324300;8.70599800;2022-09-03T06:28:47;10.70;;;3.47;;
5847;SDS011;8756;49.29324300;8.70599800;2022-09-03T06:31:14;12.00;;;3.20;;
5847;SDS011;8756;49.29324300;8.70599800;2022-09-03T06:33:41;10.57;;;3.10;;
5847;SDS011;8756;49.29324300;8.70599800;2022-09-03T06:36:08;10.47;;;3.20;;
5847;SDS011;8756;49.29324300;8.70599800;2022-09-03T06:38:37;11.73;;;3.70;;
5847;SDS011;8756;49.29324300;8.70599800;2022-09-03T06:41:10;10.73;;;3.00;;
5847;SDS011;8756;49.29324300;8.70599800;2022-09-03T06:43:40;12.63;;;3.40;;
5847;SDS011;8756;49.29324300;8.70599800;2022-09-03T06:46:13;12.87;;;3.37;;
5847;SDS011;8756;49.29324300;8.70599800;2022-09-03T06:48:40;10.37;;;3.37;;
5847;SDS011;8756;49.29324300;8.70599800;2022-09-03T06:51:11;14.13;;;3.80;;
5847;SDS011;8756;49.29324300;8.70599800;2022-09-03T06:53:40;12.10;;;3.27;;
5847;SDS011;8756;49.29324300;8.70599800;2022-09-03T06:56:11;12.00;;;3.80;;
5847;SDS011;8756;49.29324300;8.70599800;2022-09-03T06:58:39;12.20;;;3.90;;
5847;SDS011;8756;49.29324300;8.70599800;2022-09-03T07:01:10;13.93;;;3.23;;
5847;SDS011;8756;49.29324300;8.70599800;2022-09-03T07:03:38;11.13;;;3.63;;
5847;SDS011;8756;49.29324300;8.70599800;2022-09-03T07:06:09;11.73;;;3.47;;
5847;SDS011;8756;49.29324300;8.70599800;2022-09-03T07:08:40;11.63;;;3.20;;
5847;SDS011;8756;49.29324300;8.70599800;2022-09-03T07:11:13;11.60;;;3.70;;
5847;SDS011;8756;49.29324300;8.70599800;2022-09-03T07:13:46;10.30;;;3.37;;
5847;SDS011;8756;49.29324300;8.70599800;2022-09-03T07:16:13;13.30;;;3.80;;
5847;SDS011;8756;49.29324300;8.70599800;2022-09-03T07:18:41;12.37;;;4.07;;
5847;SDS011;8756;49.29324300;8.70599800;2022-09-03T07:21:12;11.97;;;3.97;;
5847;SDS011;8756;49.29324300;8.70599800;2022-09-03T07:23:40;10.60;;;3.60;;
5847;SDS011;8756;49.29324300;8.70599800;2022-09-03T07:26:13;11.63;;;4.30;;
5847;SDS011;8756;49.29324300;8.70599800;2022-09-03T07:28:41;10.33;;;3.80;;
5847;SDS011;8756;49.29324300;8.70599800;2022-09-03T07:31:13;12.07;;;3.90;;
5847;SDS011;8756;49.29324300;8.70599800;2022-09-03T07:33:44;11.57;;;3.90;;
5847;SDS011;8756;49.29324300;8.70599800;2022-09-03T07:36:11;12.53;;;4.33;;
5847;SDS011;8756;49.29324300;8.70599800;2022-09-03T07:38:43;12.03;;;4.23;;
5847;SDS011;8756;49.29324300;8.70599800;2022-09-03T07:41:10;11.77;;;4.57;;
5847;SDS011;8756;49.29324300;8.70599800;2022-09-03T07:43:38;12.70;;;3.97;;
5847;SDS011;8756;49.29324300;8.70599800;2022-09-03T07:46:05;10.90;;;4.47;;
5847;SDS011;8756;49.29324300;8.70599800;2022-09-03T07:48:32;11.83;;;4.07;;
5847;SDS011;8756;49.29324300;8.70599800;2022-09-03T07:51:01;12.87;;;4.40;;
5847;SDS011;8756;49.29324300;8.70599800;2022-09-03T07:53:27;11.33;;;4.60;;
5847;SDS011;8756;49.29324300;8.70599800;2022-09-03T07:56:00;12.27;;;4.23;;
5847;SDS011;8756;49.29324300;8.70599800;2022-09-03T07:58:33;12.43;;;4.33;;
5847;SDS011;8756;49.29324300;8.70599800;2022-09-03T08:01:07;15.50;;;4.90;;
5847;SDS011;8756;49.29324300;8.70599800;2022-09-03T08:03:34;12.90;;;4.73;;
5847;SDS011;8756;49.29324300;8.70599800;2022-09-03T08:06:01;11.53;;;4.03;;
5847;SDS011;8756;49.29324300;8.70599800;2022-09-03T08:08:32;12.00;;;4.10;;
5847;SDS011;8756;49.29324300;8.70599800;2022-09-03T08:11:07;12.23;;;4.70;;
5847;SDS011;8756;49.29324300;8.70599800;2022-09-03T08:13:37;14.30;;;4.80;;
5847;SDS011;8756;49.29324300;8.70599800;2022-09-03T08:16:08;13.67;;;4.77;;
5847;SDS011;8756;49.29324300;8.70599800;2022-09-03T08:18:36;12.97;;;4.77;;
5847;SDS011;8756;49.29324300;8.70599800;2022-09-03T08:21:06;11.83;;;4.90;;
5847;SDS011;8756;49.29324300;8.70599800;2022-09-03T08:23:44;12.23;;;4.57;;
5847;SDS011;8756;49.29324300;8.70599800;2022-09-03T08:26:11;12.30;;;4.40;;
5847;SDS011;8756;49.29324300;8.70599800;2022-09-03T08:28:38;11.57;;;4.77;;
5847;SDS011;8756;49.29324300;8.70599800;2022-09-03T08:33:41;11.80;;;4.90;;
5847;SDS011;8756;49.29324300;8.70599800;2022-09-03T08:36:10;12.23;;;4.90;;
5847;SDS011;8756;49.29324300;8.70599800;2022-09-03T08:38:37;13.33;;;4.80;;
5847;SDS011;8756;49.29324300;8.70599800;2022-09-03T08:41:06;15.40;;;5.83;;
5847;SDS011;8756;49.29324300;8.70599800;2022-09-03T08:46:48;11.70;;;5.17;;
5847;SDS011;8756;49.29324300;8.70599800;2022-09-03T08:49:55;12.93;;;4.90;;
5847;SDS011;8756;49.29324300;8.70599800;2022-09-03T08:55:16;12.90;;;5.40;;
5847;SDS011;8756;49.29324300;8.70599800;2022-09-03T08:57:59;15.87;;;5.97;;
5847;SDS011;8756;49.29324300;8.70599800;2022-09-03T09:00:37;14.40;;;6.30;;
5847;SDS011;8756;49.29324300;8.70599800;2022-09-03T09:06:00;12.80;;;6.20;;
5847;SDS011;8756;49.29324300;8.70599800;2022-09-03T09:14:39;13.30;;;6.23;;
5847;SDS011;8756;49.29324300;8.70599800;2022-09-03T09:20:14;13.70;;;5.87;;
5847;SDS011;8756;49.29324300;8.70599800;2022-09-03T09:22:56;17.03;;;7.03;;
5847;SDS011;8756;49.29324300;8.70599800;2022-09-03T09:25:31;15.10;;;6.90;;
5847;SDS011;8756;49.29324300;8.70599800;2022-09-03T09:31:00;14.53;;;5.97;;
5847;SDS011;8756;49.29324300;8.70599800;2022-09-03T09:33:28;12.77;;;6.40;;
5847;SDS011;8756;49.29324300;8.70599800;2022-09-03T09:35:58;15.70;;;6.70;;
5847;SDS011;8756;49.29324300;8.70599800;2022-09-03T09:38:33;13.33;;;5.80;;
5847;SDS011;8756;49.29324300;8.70599800;2022-09-03T09:41:13;14.10;;;7.10;;
5847;SDS011;8756;49.29324300;8.70599800;2022-09-03T09:43:45;17.50;;;6.97;;
5847;SDS011;8756;49.29324300;8.70599800;2022-09-03T09:46:18;16.77;;;8.30;;
5847;SDS011;8756;49.29324300;8.70599800;2022-09-03T09:48:52;16.47;;;8.30;;
5847;SDS011;8756;49.29324300;8.70599800;2022-09-03T09:51:25;14.70;;;6.80;;
5847;SDS011;8756;49.29324300;8.70599800;2022-09-03T09:54:00;16.80;;;7.30;;
5847;SDS011;8756;49.29324300;8.70599800;2022-09-03T09:56:37;17.30;;;6.97;;
5847;SDS011;8756;49.29324300;8.70599800;2022-09-03T09:59:04;15.20;;;6.57;;
5847;SDS011;8756;49.29324300;8.70599800;2022-09-03T10:01:32;14.30;;;6.53;;
5847;SDS011;8756;49.29324300;8.70599800;2022-09-03T10:04:08;12.90;;;6.47;;
5847;SDS011;8756;49.29324300;8.70599800;2022-09-03T10:10:09;12.93;;;5.93;;
5847;SDS011;8756;49.29324300;8.70599800;2022-09-03T10:12:48;15.23;;;5.70;;
5847;SDS011;8756;49.29324300;8.70599800;2022-09-03T10:23:41;12.17;;;5.97;;
5847;SDS011;8756;49.29324300;8.70599800;2022-09-03T10:26:27;15.97;;;6.20;;
5847;SDS011;8756;49.29324300;8.70599800;2022-09-03T10:28:58;14.83;;;6.83;;
5847;SDS011;8756;49.29324300;8.70599800;2022-09-03T10:46:02;14.63;;;6.80;;
5847;SDS011;8756;49.29324300;8.70599800;2022-09-03T10:51:45;12.57;;;5.73;;
5847;SDS011;8756;49.29324300;8.70599800;2022-09-03T11:08:00;12.53;;;6.17;;
5847;SDS011;8756;49.29324300;8.70599800;2022-09-03T11:10:40;12.50;;;5.80;;
5847;SDS011;8756;49.29324300;8.70599800;2022-09-03T11:15:55;13.27;;;6.00;;
5847;SDS011;8756;49.29324300;8.70599800;2022-09-03T11:21:07;13.23;;;6.10;;
5847;SDS011;8756;49.29324300;8.70599800;2022-09-03T11:23:36;13.20;;;5.60;;
5847;SDS011;8756;49.29324300;8.70599800;2022-09-03T11:26:12;11.50;;;5.67;;
5847;SDS011;8756;49.29324300;8.70599800;2022-09-03T11:29:05;12.30;;;5.47;;
5847;SDS011;8756;49.29324300;8.70599800;2022-09-03T11:31:37;12.40;;;4.97;;
5847;SDS011;8756;49.29324300;8.70599800;2022-09-03T11:34:29;12.70;;;5.47;;
5847;SDS011;8756;49.29324300;8.70599800;2022-09-03T11:39:58;14.17;;;5.50;;
5847;SDS011;8756;49.29324300;8.70599800;2022-09-03T11:42:35;13.27;;;5.60;;
5847;SDS011;8756;49.29324300;8.70599800;2022-09-03T11:47:58;11.73;;;4.93;;
5847;SDS011;8756;49.29324300;8.70599800;2022-09-03T11:55:59;13.63;;;4.90;;
5847;SDS011;8756;49.29324300;8.70599800;2022-09-03T11:58:32;15.23;;;5.50;;
5847;SDS011;8756;49.29324300;8.70599800;2022-09-03T12:01:01;12.50;;;5.30;;
5847;SDS011;8756;49.29324300;8.70599800;2022-09-03T12:03:36;13.77;;;4.80;;
5847;SDS011;8756;49.29324300;8.70599800;2022-09-03T12:11:32;11.70;;;4.60;;
5847;SDS011;8756;49.29324300;8.70599800;2022-09-03T12:16:41;11.20;;;4.03;;
5847;SDS011;8756;49.29324300;8.70599800;2022-09-03T12:19:31;10.97;;;4.33;;
5847;SDS011;8756;49.29324300;8.70599800;2022-09-03T12:22:13;13.10;;;5.47;;
5847;SDS011;8756;49.29324300;8.70599800;2022-09-03T12:24:40;15.00;;;4.90;;
5847;SDS011;8756;49.29324300;8.70599800;2022-09-03T12:27:12;11.80;;;4.10;;
5847;SDS011;8756;49.29324300;8.70599800;2022-09-03T12:29:56;11.50;;;4.50;;
5847;SDS011;8756;49.29324300;8.70599800;2022-09-03T12:32:31;13.57;;;5.03;;
5847;SDS011;8756;49.29324300;8.70599800;2022-09-03T12:35:14;10.97;;;4.20;;
5847;SDS011;8756;49.29324300;8.70599800;2022-09-03T12:37:41;10.37;;;2.93;;
5847;SDS011;8756;49.29324300;8.70599800;2022-09-03T12:40:20;12.13;;;3.70;;
5847;SDS011;8756;49.29324300;8.70599800;2022-09-03T12:42:48;15.07;;;4.97;;
5847;SDS011;8756;49.29324300;8.70599800;2022-09-03T12:45:14;11.73;;;4.17;;
5847;SDS011;8756;49.29324300;8.70599800;2022-09-03T12:47:44;11.67;;;4.30;;
5847;SDS011;8756;49.29324300;8.70599800;2022-09-03T12:50:14;11.60;;;3.97;;
5847;SDS011;8756;49.29324300;8.70599800;2022-09-03T12:58:10;10.70;;;4.00;;
5847;SDS011;8756;49.29324300;8.70599800;2022-09-03T13:00:35;10.83;;;3.83;;
5847;SDS011;8756;49.29324300;8.70599800;2022-09-03T13:05:45;11.93;;;4.27;;
5847;SDS011;8756;49.29324300;8.70599800;2022-09-03T13:08:17;12.40;;;4.80;;
5847;SDS011;8756;49.29324300;8.70599800;2022-09-03T13:10:49;12.10;;;4.87;;
5847;SDS011;8756;49.29324300;8.70599800;2022-09-03T13:13:28;14.03;;;5.03;;
5847;SDS011;8756;49.29324300;8.70599800;2022-09-03T13:32:32;15.40;;;5.00;;
5847;SDS011;8756;49.29324300;8.70599800;2022-09-03T13:38:36;14.10;;;4.83;;
5847;SDS011;8756;49.29324300;8.70599800;2022-09-03T13:49:08;14.53;;;5.90;;
5847;SDS011;8756;49.29324300;8.70599800;2022-09-03T13:52:00;12.43;;;4.53;;
5847;SDS011;8756;49.29324300;8.70599800;2022-09-03T13:54:36;14.00;;;5.10;;
5847;SDS011;8756;49.29324300;8.70599800;2022-09-03T13:57:20;12.30;;;4.37;;
5847;SDS011;8756;49.29324300;8.70599800;2022-09-03T14:11:31;11.70;;;4.17;;
5847;SDS011;8756;49.29324300;8.70599800;2022-09-03T14:14:02;11.67;;;3.80;;
5847;SDS011;8756;49.29324300;8.70599800;2022-09-03T14:22:13;11.40;;;3.90;;
5847;SDS011;8756;49.29324300;8.70599800;2022-09-03T14:24:55;13.93;;;5.00;;
5847;SDS011;8756;49.29324300;8.70599800;2022-09-03T14:27:23;13.63;;;4.07;;
5847;SDS011;8756;49.29324300;8.70599800;2022-09-03T14:29:58;12.60;;;4.20;;
5847;SDS011;8756;49.29324300;8.70599800;2022-09-03T14:41:02;11.67;;;4.53;;
5847;SDS011;8756;49.29324300;8.70599800;2022-09-03T14:43:55;12.00;;;4.30;;
5847;SDS011;8756;49.29324300;8.70599800;2022-09-03T15:09:14;12.50;;;4.77;;
5847;SDS011;8756;49.29324300;8.70599800;2022-09-03T15:11:53;12.33;;;5.00;;
5847;SDS011;8756;49.29324300;8.70599800;2022-09-03T15:22:12;12.93;;;5.10;;
5847;SDS011;8756;49.29324300;8.70599800;2022-09-03T15:27:30;13.20;;;5.60;;
5847;SDS011;8756;49.29324300;8.70599800;2022-09-03T15:30:12;12.90;;;5.83;;
5847;SDS011;8756;49.29324300;8.70599800;2022-09-03T15:38:05;12.63;;;4.67;;
5847;SDS011;8756;49.29324300;8.70599800;2022-09-03T15:40:51;12.33;;;5.40;;
5847;SDS011;8756;49.29324300;8.70599800;2022-09-03T15:43:31;13.27;;;5.43;;
5847;SDS011;8756;49.29324300;8.70599800;2022-09-03T16:02:54;12.93;;;5.60;;
5847;SDS011;8756;49.29324300;8.70599800;2022-09-03T16:13:57;12.60;;;4.97;;
5847;SDS011;8756;49.29324300;8.70599800;2022-09-03T16:19:23;12.40;;;4.63;;
5847;SDS011;8756;49.29324300;8.70599800;2022-09-03T16:22:06;12.83;;;4.60;;
5847;SDS011;8756;49.29324300;8.70599800;2022-09-03T16:25:00;13.00;;;4.63;;
5847;SDS011;8756;49.29324300;8.70599800;2022-09-03T16:27:39;13.07;;;4.70;;
5847;SDS011;8756;49.29324300;8.70599800;2022-09-03T16:30:11;12.53;;;4.43;;
5847;SDS011;8756;49.29324300;8.70599800;2022-09-03T16:32:49;12.13;;;4.83;;
5847;SDS011;8756;49.29324300;8.70599800;2022-09-03T16:35:30;11.80;;;3.90;;
5847;SDS011;8756;49.29324300;8.70599800;2022-09-03T16:38:26;10.60;;;3.60;;
5847;SDS011;8756;49.29324300;8.70599800;2022-09-03T16:40:57;11.27;;;3.67;;
5847;SDS011;8756;49.29324300;8.70599800;2022-09-03T16:44:02;11.90;;;3.50;;
5847;SDS011;8756;49.29324300;8.70599800;2022-09-03T16:46:44;10.73;;;3.73;;
5847;SDS011;8756;49.29324300;8.70599800;2022-09-03T16:49:50;12.40;;;4.23;;
5847;SDS011;8756;49.29324300;8.70599800;2022-09-03T16:52:39;11.57;;;4.00;;
5847;SDS011;8756;49.29324300;8.70599800;2022-09-03T16:58:25;11.93;;;4.17;;
5847;SDS011;8756;49.29324300;8.70599800;2022-09-03T17:06:28;10.20;;;3.13;;
5847;SDS011;8756;49.29324300;8.70599800;2022-09-03T17:12:07;11.40;;;3.67;;
5847;SDS011;8756;49.29324300;8.70599800;2022-09-03T17:14:44;11.80;;;3.73;;
5847;SDS011;8756;49.29324300;8.70599800;2022-09-03T17:18:01;10.57;;;3.67;;
5847;SDS011;8756;49.29324300;8.70599800;2022-09-03T17:26:20;12.13;;;4.60;;
5847;SDS011;8756;49.29324300;8.70599800;2022-09-03T17:31:53;10.80;;;3.87;;
5847;SDS011;8756;49.29324300;8.70599800;2022-09-03T17:43:17;13.60;;;4.00;;
5847;SDS011;8756;49.29324300;8.70599800;2022-09-03T17:48:51;11.70;;;3.77;;
5847;SDS011;8756;49.29324300;8.70599800;2022-09-03T17:56:53;13.43;;;3.80;;
5847;SDS011;8756;49.29324300;8.70599800;2022-09-03T17:59:34;12.90;;;3.90;;
5847;SDS011;8756;49.29324300;8.70599800;2022-09-03T18:02:08;12.17;;;3.80;;
5847;SDS011;8756;49.29324300;8.70599800;2022-09-03T18:04:41;11.67;;;3.87;;
5847;SDS011;8756;49.29324300;8.70599800;2022-09-03T18:07:20;11.80;;;4.00;;
5847;SDS011;8756;49.29324300;8.70599800;2022-09-03T18:10:09;12.83;;;4.10;;
5847;SDS011;8756;49.29324300;8.70599800;2022-09-03T18:15:52;12.30;;;4.77;;
5847;SDS011;8756;49.29324300;8.70599800;2022-09-03T18:18:31;11.47;;;3.50;;
5847;SDS011;8756;49.29324300;8.70599800;2022-09-03T18:21:02;12.23;;;4.03;;
5847;SDS011;8756;49.29324300;8.70599800;2022-09-03T18:24:15;13.33;;;4.50;;
5847;SDS011;8756;49.29324300;8.70599800;2022-09-03T18:27:11;12.83;;;4.13;;
5847;SDS011;8756;49.29324300;8.70599800;2022-09-03T18:30:07;11.70;;;4.20;;
5847;SDS011;8756;49.29324300;8.70599800;2022-09-03T18:32:56;12.63;;;4.57;;
5847;SDS011;8756;49.29324300;8.70599800;2022-09-03T18:35:44;11.93;;;3.83;;
5847;SDS011;8756;49.29324300;8.70599800;2022-09-03T18:38:30;13.00;;;3.77;;
5847;SDS011;8756;49.29324300;8.70599800;2022-09-03T18:47:40;16.37;;;5.50;;
5847;SDS011;8756;49.29324300;8.70599800;2022-09-03T18:56:50;11.87;;;4.30;;